Bethany, Minnesota
Current Conditions -  °F | °C
As of 3:14 PM on Thursday 20 Nov 2014 (Local Time) from KONA Reporting Station
Clear Clear  
Wind Chill:   Ceiling: Unl
Heat Index: 21°   Visibility: 10mi
Dew Point:   Wind: 13mph
Humidity: 50%   Direction: 300°WNW
Pressure: 30.16"   Gusts: 21mph
Location:  44.1503°N, 91.9879°W
Report Text: KONA 202114Z AUTO 30011G18KT 10SM CLR M06/M15 A3016 RMK AO2
Loading
Personal Weather Stations






























Interactive Weather Map New forecast layout! Learn more

10-Day Weather Forecast

Advertisements
Track Severe Weather on mobile